sensor_id;sensor_type;location;lat;lon;timestamp;temperature;humidity
981;DHT22;479;53.514;9.994;2023-03-24T00:00:58;11.10;99.90
981;DHT22;479;53.514;9.994;2023-03-24T00:03:26;11.10;99.90
981;DHT22;479;53.514;9.994;2023-03-24T00:05:57;11.10;99.90
981;DHT22;479;53.514;9.994;2023-03-24T00:08:27;11.10;99.90
981;DHT22;479;53.514;9.994;2023-03-24T00:10:58;11.10;99.90
981;DHT22;479;53.514;9.994;2023-03-24T00:13:26;11.10;99.90
981;DHT22;479;53.514;9.994;2023-03-24T00:15:54;11.10;99.90
981;DHT22;479;53.514;9.994;2023-03-24T00:18:21;11.10;99.90
981;DHT22;479;53.514;9.994;2023-03-24T00:20:51;11.20;99.90
981;DHT22;479;53.514;9.994;2023-03-24T00:23:25;11.20;99.90
981;DHT22;479;53.514;9.994;2023-03-24T00:26:01;11.20;99.90
981;DHT22;479;53.514;9.994;2023-03-24T00:28:29;11.30;99.90
981;DHT22;479;53.514;9.994;2023-03-24T00:30:58;11.20;99.90
981;DHT22;479;53.514;9.994;2023-03-24T00:33:27;11.30;99.90
981;DHT22;479;53.514;9.994;2023-03-24T00:35:56;11.20;99.90
981;DHT22;479;53.514;9.994;2023-03-24T00:38:24;11.20;99.90
981;DHT22;479;53.514;9.994;2023-03-24T00:40:52;11.20;99.90
981;DHT22;479;53.514;9.994;2023-03-24T00:43:19;11.20;99.90
981;DHT22;479;53.514;9.994;2023-03-24T00:45:46;11.10;99.90
981;DHT22;479;53.514;9.994;2023-03-24T00:48:15;11.10;99.90
981;DHT22;479;53.514;9.994;2023-03-24T00:50:44;11.10;99.90
981;DHT22;479;53.514;9.994;2023-03-24T00:53:11;11.00;99.90
981;DHT22;479;53.514;9.994;2023-03-24T00:55:42;11.00;99.90
981;DHT22;479;53.514;9.994;2023-03-24T00:58:11;10.90;99.90
981;DHT22;479;53.514;9.994;2023-03-24T01:00:42;10.90;99.90
981;DHT22;479;53.514;9.994;2023-03-24T01:03:10;10.80;99.90
981;DHT22;479;53.514;9.994;2023-03-24T01:05:39;10.80;99.90
981;DHT22;479;53.514;9.994;2023-03-24T01:08:08;10.80;99.90
981;DHT22;479;53.514;9.994;2023-03-24T01:10:37;10.80;99.90
981;DHT22;479;53.514;9.994;2023-03-24T01:13:20;10.70;99.90
981;DHT22;479;53.514;9.994;2023-03-24T01:15:48;10.70;99.90
981;DHT22;479;53.514;9.994;2023-03-24T01:18:16;10.70;99.90
981;DHT22;479;53.514;9.994;2023-03-24T01:20:45;10.70;99.90
981;DHT22;479;53.514;9.994;2023-03-24T01:23:17;10.70;99.90
981;DHT22;479;53.514;9.994;2023-03-24T01:25:46;10.70;99.90
981;DHT22;479;53.514;9.994;2023-03-24T01:28:16;10.60;99.90
981;DHT22;479;53.514;9.994;2023-03-24T01:30:45;10.70;99.90
981;DHT22;479;53.514;9.994;2023-03-24T01:33:12;10.60;99.90
981;DHT22;479;53.514;9.994;2023-03-24T01:35:40;10.60;99.90
981;DHT22;479;53.514;9.994;2023-03-24T01:38:08;10.60;99.90
981;DHT22;479;53.514;9.994;2023-03-24T01:40:39;10.50;99.90
981;DHT22;479;53.514;9.994;2023-03-24T01:43:15;10.50;99.90
981;DHT22;479;53.514;9.994;2023-03-24T01:45:56;10.50;99.90
981;DHT22;479;53.514;9.994;2023-03-24T01:48:27;10.50;99.90
981;DHT22;479;53.514;9.994;2023-03-24T01:50:56;10.40;99.90
981;DHT22;479;53.514;9.994;2023-03-24T01:53:24;10.40;99.90
981;DHT22;479;53.514;9.994;2023-03-24T01:55:52;10.40;99.90
981;DHT22;479;53.514;9.994;2023-03-24T01:58:24;10.40;99.90
981;DHT22;479;53.514;9.994;2023-03-24T02:01:07;10.40;99.90
981;DHT22;479;53.514;9.994;2023-03-24T02:04:05;10.40;99.90
981;DHT22;479;53.514;9.994;2023-03-24T02:06:36;10.30;99.90
981;DHT22;479;53.514;9.994;2023-03-24T02:09:07;10.30;99.90
981;DHT22;479;53.514;9.994;2023-03-24T02:11:36;10.40;99.90
981;DHT22;479;53.514;9.994;2023-03-24T02:14:06;10.40;99.90
981;DHT22;479;53.514;9.994;2023-03-24T02:16:48;10.30;99.90
981;DHT22;479;53.514;9.994;2023-03-24T02:19:53;10.30;99.90
981;DHT22;479;53.514;9.994;2023-03-24T02:29:00;10.40;99.90
981;DHT22;479;53.514;9.994;2023-03-24T02:31:50;10.30;99.90
981;DHT22;479;53.514;9.994;2023-03-24T02:34:55;10.30;99.90
981;DHT22;479;53.514;9.994;2023-03-24T02:37:46;10.30;99.90
981;DHT22;479;53.514;9.994;2023-03-24T02:40:32;10.30;99.90
981;DHT22;479;53.514;9.994;2023-03-24T02:43:15;10.30;99.90
981;DHT22;479;53.514;9.994;2023-03-24T02:45:52;10.30;99.90
981;DHT22;479;53.514;9.994;2023-03-24T02:48:24;10.30;99.90
981;DHT22;479;53.514;9.994;2023-03-24T02:51:03;10.30;99.90
981;DHT22;479;53.514;9.994;2023-03-24T02:53:39;10.30;99.90
981;DHT22;479;53.514;9.994;2023-03-24T02:56:32;10.30;99.90
981;DHT22;479;53.514;9.994;2023-03-24T02:59:27;10.30;99.90
981;DHT22;479;53.514;9.994;2023-03-24T03:02:02;10.30;99.90
981;DHT22;479;53.514;9.994;2023-03-24T03:04:41;10.30;99.90
981;DHT22;479;53.514;9.994;2023-03-24T03:07:12;10.30;99.90
981;DHT22;479;53.514;9.994;2023-03-24T03:09:48;10.30;99.90
981;DHT22;479;53.514;9.994;2023-03-24T03:12:18;10.30;99.90
981;DHT22;479;53.514;9.994;2023-03-24T03:14:50;10.30;99.90
981;DHT22;479;53.514;9.994;2023-03-24T03:17:19;10.30;99.90
981;DHT22;479;53.514;9.994;2023-03-24T03:19:51;10.30;99.90
981;DHT22;479;53.514;9.994;2023-03-24T03:22:23;10.40;99.90
981;DHT22;479;53.514;9.994;2023-03-24T03:24:52;10.40;99.90
981;DHT22;479;53.514;9.994;2023-03-24T03:27:24;10.40;99.90
981;DHT22;479;53.514;9.994;2023-03-24T03:29:57;10.40;99.90
981;DHT22;479;53.514;9.994;2023-03-24T03:32:30;10.40;99.90
981;DHT22;479;53.514;9.994;2023-03-24T03:35:01;10.40;99.90
981;DHT22;479;53.514;9.994;2023-03-24T03:37:35;10.40;99.90
981;DHT22;479;53.514;9.994;2023-03-24T03:40:08;10.50;99.90
981;DHT22;479;53.514;9.994;2023-03-24T03:42:41;10.50;99.90
981;DHT22;479;53.514;9.994;2023-03-24T03:45:09;10.50;99.90
981;DHT22;479;53.514;9.994;2023-03-24T03:47:37;10.60;99.90
981;DHT22;479;53.514;9.994;2023-03-24T03:50:06;10.60;99.90
981;DHT22;479;53.514;9.994;2023-03-24T03:52:35;10.70;99.90
981;DHT22;479;53.514;9.994;2023-03-24T03:55:04;10.60;99.90
981;DHT22;479;53.514;9.994;2023-03-24T03:57:32;10.70;99.90
981;DHT22;479;53.514;9.994;2023-03-24T04:00:17;10.70;99.90
981;DHT22;479;53.514;9.994;2023-03-24T04:03:15;10.80;99.90
981;DHT22;479;53.514;9.994;2023-03-24T04:05:50;10.80;99.90
981;DHT22;479;53.514;9.994;2023-03-24T04:08:25;10.80;99.90
981;DHT22;479;53.514;9.994;2023-03-24T04:11:09;10.90;99.90
981;DHT22;479;53.514;9.994;2023-03-24T04:14:11;10.90;99.90
981;DHT22;479;53.514;9.994;2023-03-24T04:16:53;11.00;99.90
981;DHT22;479;53.514;9.994;2023-03-24T04:19:36;11.00;99.90
981;DHT22;479;53.514;9.994;2023-03-24T04:22:20;11.00;99.90
981;DHT22;479;53.514;9.994;2023-03-24T04:25:08;11.10;99.90
981;DHT22;479;53.514;9.994;2023-03-24T04:27:43;11.10;99.90
981;DHT22;479;53.514;9.994;2023-03-24T04:30:15;11.10;99.90
981;DHT22;479;53.514;9.994;2023-03-24T04:32:48;11.10;99.90
981;DHT22;479;53.514;9.994;2023-03-24T04:35:26;11.20;99.90
981;DHT22;479;53.514;9.994;2023-03-24T04:38:13;11.20;99.90
981;DHT22;479;53.514;9.994;2023-03-24T04:40:45;11.10;99.90
981;DHT22;479;53.514;9.994;2023-03-24T04:43:17;11.10;99.90
981;DHT22;479;53.514;9.994;2023-03-24T04:45:45;11.20;99.90
981;DHT22;479;53.514;9.994;2023-03-24T04:48:35;11.20;99.90
981;DHT22;479;53.514;9.994;2023-03-24T04:51:22;11.20;99.90
981;DHT22;479;53.514;9.994;2023-03-24T04:54:13;11.20;99.90
981;DHT22;479;53.514;9.994;2023-03-24T04:56:48;11.20;99.90
981;DHT22;479;53.514;9.994;2023-03-24T04:59:20;11.20;99.90
981;DHT22;479;53.514;9.994;2023-03-24T05:01:47;11.20;99.90
981;DHT22;479;53.514;9.994;2023-03-24T05:04:35;11.20;99.90
981;DHT22;479;53.514;9.994;2023-03-24T05:07:11;11.30;99.90
981;DHT22;479;53.514;9.994;2023-03-24T05:09:40;11.30;99.90
981;DHT22;479;53.514;9.994;2023-03-24T05:12:07;11.30;99.90
981;DHT22;479;53.514;9.994;2023-03-24T05:14:52;11.30;99.90
981;DHT22;479;53.514;9.994;2023-03-24T05:17:19;11.30;99.90
981;DHT22;479;53.514;9.994;2023-03-24T05:19:47;11.30;99.90
981;DHT22;479;53.514;9.994;2023-03-24T05:22:14;11.30;99.90
981;DHT22;479;53.514;9.994;2023-03-24T05:24:41;11.40;99.90
981;DHT22;479;53.514;9.994;2023-03-24T05:27:08;11.40;99.90
981;DHT22;479;53.514;9.994;2023-03-24T05:29:35;11.40;99.90
981;DHT22;479;53.514;9.994;2023-03-24T05:32:03;11.50;99.90
981;DHT22;479;53.514;9.994;2023-03-24T05:34:30;11.50;99.90
981;DHT22;479;53.514;9.994;2023-03-24T05:37:06;11.50;99.90
981;DHT22;479;53.514;9.994;2023-03-24T05:39:36;11.50;99.90
981;DHT22;479;53.514;9.994;2023-03-24T05:42:24;11.50;99.90
981;DHT22;479;53.514;9.994;2023-03-24T05:44:51;11.50;99.90
981;DHT22;479;53.514;9.994;2023-03-24T05:47:24;11.50;99.90
981;DHT22;479;53.514;9.994;2023-03-24T05:49:52;11.50;99.90
981;DHT22;479;53.514;9.994;2023-03-24T05:52:20;11.50;99.90
981;DHT22;479;53.514;9.994;2023-03-24T05:54:49;11.50;99.90
981;DHT22;479;53.514;9.994;2023-03-24T05:57:23;11.60;99.90
981;DHT22;479;53.514;9.994;2023-03-24T06:00:11;11.60;99.90
981;DHT22;479;53.514;9.994;2023-03-24T06:02:49;11.60;99.90
981;DHT22;479;53.514;9.994;2023-03-24T06:05:31;11.60;99.90
981;DHT22;479;53.514;9.994;2023-03-24T06:08:00;11.60;99.90
981;DHT22;479;53.514;9.994;2023-03-24T06:10:29;11.60;99.90
981;DHT22;479;53.514;9.994;2023-03-24T06:12:57;11.60;99.90
981;DHT22;479;53.514;9.994;2023-03-24T06:15:24;11.70;99.90
981;DHT22;479;53.514;9.994;2023-03-24T06:17:55;11.70;99.90
981;DHT22;479;53.514;9.994;2023-03-24T06:20:32;11.70;99.90
981;DHT22;479;53.514;9.994;2023-03-24T06:23:08;11.70;99.90
981;DHT22;479;53.514;9.994;2023-03-24T06:25:47;11.80;99.90
981;DHT22;479;53.514;9.994;2023-03-24T06:28:21;11.70;99.90
981;DHT22;479;53.514;9.994;2023-03-24T06:30:52;11.80;99.90
981;DHT22;479;53.514;9.994;2023-03-24T06:33:28;11.80;99.90
981;DHT22;479;53.514;9.994;2023-03-24T06:35:55;11.90;99.90
981;DHT22;479;53.514;9.994;2023-03-24T06:38:25;11.90;99.90
981;DHT22;479;53.514;9.994;2023-03-24T06:40:52;11.90;99.90
981;DHT22;479;53.514;9.994;2023-03-24T06:43:19;12.00;99.90
981;DHT22;479;53.514;9.994;2023-03-24T06:45:45;12.00;99.90
981;DHT22;479;53.514;9.994;2023-03-24T06:48:20;12.00;99.90
981;DHT22;479;53.514;9.994;2023-03-24T06:50:47;12.00;99.90
981;DHT22;479;53.514;9.994;2023-03-24T06:53:15;12.00;99.90
981;DHT22;479;53.514;9.994;2023-03-24T06:55:44;12.10;99.90
981;DHT22;479;53.514;9.994;2023-03-24T06:58:12;12.10;99.90
981;DHT22;479;53.514;9.994;2023-03-24T07:01:05;12.20;99.90
981;DHT22;479;53.514;9.994;2023-03-24T07:04:02;12.40;99.90
981;DHT22;479;53.514;9.994;2023-03-24T07:06:39;12.40;99.90
981;DHT22;479;53.514;9.994;2023-03-24T07:09:12;12.40;99.90
981;DHT22;479;53.514;9.994;2023-03-24T07:11:41;12.40;99.90
981;DHT22;479;53.514;9.994;2023-03-24T07:14:08;12.30;99.90
981;DHT22;479;53.514;9.994;2023-03-24T07:16:35;12.20;99.90
981;DHT22;479;53.514;9.994;2023-03-24T07:19:29;12.20;99.90
981;DHT22;479;53.514;9.994;2023-03-24T07:22:19;12.10;99.90
981;DHT22;479;53.514;9.994;2023-03-24T07:25:14;12.00;99.90
981;DHT22;479;53.514;9.994;2023-03-24T07:28:01;12.10;99.90
981;DHT22;479;53.514;9.994;2023-03-24T07:30:28;12.20;99.90
981;DHT22;479;53.514;9.994;2023-03-24T07:32:56;12.40;99.90
981;DHT22;479;53.514;9.994;2023-03-24T07:35:22;12.50;99.90
981;DHT22;479;53.514;9.994;2023-03-24T07:40:18;12.40;99.90
981;DHT22;479;53.514;9.994;2023-03-24T07:42:46;12.50;99.90
981;DHT22;479;53.514;9.994;2023-03-24T07:45:38;12.70;99.90
981;DHT22;479;53.514;9.994;2023-03-24T07:48:05;12.80;99.90
981;DHT22;479;53.514;9.994;2023-03-24T07:50:36;12.80;99.90
981;DHT22;479;53.514;9.994;2023-03-24T07:53:13;12.80;99.90
981;DHT22;479;53.514;9.994;2023-03-24T07:55:44;12.90;99.90
981;DHT22;479;53.514;9.994;2023-03-24T07:58:17;13.50;99.90
981;DHT22;479;53.514;9.994;2023-03-24T08:01:01;14.00;99.90
981;DHT22;479;53.514;9.994;2023-03-24T08:03:38;14.60;99.90
981;DHT22;479;53.514;9.994;2023-03-24T08:06:14;14.90;99.90
981;DHT22;479;53.514;9.994;2023-03-24T08:08:49;14.90;99.90
981;DHT22;479;53.514;9.994;2023-03-24T08:11:16;14.80;99.90
981;DHT22;479;53.514;9.994;2023-03-24T08:13:43;14.30;99.90
981;DHT22;479;53.514;9.994;2023-03-24T08:16:12;14.40;99.90
981;DHT22;479;53.514;9.994;2023-03-24T08:18:39;14.70;99.90
981;DHT22;479;53.514;9.994;2023-03-24T08:21:06;15.10;99.90
981;DHT22;479;53.514;9.994;2023-03-24T08:23:32;15.60;99.90
981;DHT22;479;53.514;9.994;2023-03-24T08:26:01;15.70;99.90
981;DHT22;479;53.514;9.994;2023-03-24T08:28:28;15.70;99.90
981;DHT22;479;53.514;9.994;2023-03-24T08:30:55;15.40;99.90
981;DHT22;479;53.514;9.994;2023-03-24T08:33:23;15.40;99.90
981;DHT22;479;53.514;9.994;2023-03-24T08:35:52;15.20;99.90
981;DHT22;479;53.514;9.994;2023-03-24T08:38:22;14.80;99.90
981;DHT22;479;53.514;9.994;2023-03-24T08:40:55;14.40;99.90
981;DHT22;479;53.514;9.994;2023-03-24T08:43:24;14.10;99.90
981;DHT22;479;53.514;9.994;2023-03-24T08:45:51;14.10;99.90
981;DHT22;479;53.514;9.994;2023-03-24T08:48:17;14.40;99.90
981;DHT22;479;53.514;9.994;2023-03-24T08:50:46;14.70;99.90
981;DHT22;479;53.514;9.994;2023-03-24T08:53:13;14.40;99.90
981;DHT22;479;53.514;9.994;2023-03-24T08:55:41;14.20;99.90
981;DHT22;479;53.514;9.994;2023-03-24T08:58:13;14.00;99.90
981;DHT22;479;53.514;9.994;2023-03-24T09:00:40;13.90;99.90
981;DHT22;479;53.514;9.994;2023-03-24T09:03:11;14.00;99.90
981;DHT22;479;53.514;9.994;2023-03-24T09:05:39;14.00;99.90
981;DHT22;479;53.514;9.994;2023-03-24T09:08:08;14.20;99.90
981;DHT22;479;53.514;9.994;2023-03-24T09:10:35;14.00;99.90
981;DHT22;479;53.514;9.994;2023-03-24T09:13:02;13.80;99.90
981;DHT22;479;53.514;9.994;2023-03-24T09:15:30;13.70;99.90
981;DHT22;479;53.514;9.994;2023-03-24T09:17:57;13.60;99.90
981;DHT22;479;53.514;9.994;2023-03-24T09:20:25;13.60;99.90
981;DHT22;479;53.514;9.994;2023-03-24T09:22:52;13.90;99.90
981;DHT22;479;53.514;9.994;2023-03-24T09:25:22;14.20;99.90
981;DHT22;479;53.514;9.994;2023-03-24T09:27:49;14.40;99.90
981;DHT22;479;53.514;9.994;2023-03-24T09:30:17;14.10;99.90
981;DHT22;479;53.514;9.994;2023-03-24T09:32:44;13.90;99.90
981;DHT22;479;53.514;9.994;2023-03-24T09:35:12;13.80;99.90
981;DHT22;479;53.514;9.994;2023-03-24T09:37:40;13.70;99.90
981;DHT22;479;53.514;9.994;2023-03-24T09:40:17;14.50;99.90
981;DHT22;479;53.514;9.994;2023-03-24T09:42:50;14.70;99.90
981;DHT22;479;53.514;9.994;2023-03-24T09:45:21;14.90;99.90
981;DHT22;479;53.514;9.994;2023-03-24T09:47:51;15.30;99.90
981;DHT22;479;53.514;9.994;2023-03-24T09:50:23;15.10;99.90
981;DHT22;479;53.514;9.994;2023-03-24T09:52:52;14.90;99.90
981;DHT22;479;53.514;9.994;2023-03-24T09:55:23;14.50;99.90
981;DHT22;479;53.514;9.994;2023-03-24T09:57:54;13.90;99.90
981;DHT22;479;53.514;9.994;2023-03-24T10:00:23;13.80;99.90
981;DHT22;479;53.514;9.994;2023-03-24T10:02:51;13.80;99.90
981;DHT22;479;53.514;9.994;2023-03-24T10:05:22;13.70;99.90
981;DHT22;479;53.514;9.994;2023-03-24T10:07:56;13.70;99.90
981;DHT22;479;53.514;9.994;2023-03-24T10:10:30;13.40;99.90
981;DHT22;479;53.514;9.994;2023-03-24T10:13:05;13.30;99.90
981;DHT22;479;53.514;9.994;2023-03-24T10:15:35;13.30;99.90
981;DHT22;479;53.514;9.994;2023-03-24T10:18:26;13.70;99.90
981;DHT22;479;53.514;9.994;2023-03-24T10:20:57;14.20;99.90
981;DHT22;479;53.514;9.994;2023-03-24T10:23:30;15.30;99.90
981;DHT22;479;53.514;9.994;2023-03-24T10:26:03;15.80;99.90
981;DHT22;479;53.514;9.994;2023-03-24T10:28:37;15.50;99.90
981;DHT22;479;53.514;9.994;2023-03-24T10:31:10;15.20;99.90
981;DHT22;479;53.514;9.994;2023-03-24T10:33:39;15.00;99.90
981;DHT22;479;53.514;9.994;2023-03-24T10:36:08;14.90;99.90
981;DHT22;479;53.514;9.994;2023-03-24T10:38:37;14.90;99.90
981;DHT22;479;53.514;9.994;2023-03-24T10:41:04;15.00;99.90
981;DHT22;479;53.514;9.994;2023-03-24T10:43:31;15.20;99.90
981;DHT22;479;53.514;9.994;2023-03-24T10:46:00;15.30;99.90
981;DHT22;479;53.514;9.994;2023-03-24T10:48:41;15.50;99.90
981;DHT22;479;53.514;9.994;2023-03-24T10:51:13;15.50;99.90
981;DHT22;479;53.514;9.994;2023-03-24T10:53:41;15.90;99.90
981;DHT22;479;53.514;9.994;2023-03-24T10:56:14;15.80;99.90
981;DHT22;479;53.514;9.994;2023-03-24T10:58:42;15.60;99.90
981;DHT22;479;53.514;9.994;2023-03-24T11:01:22;15.50;99.90
981;DHT22;479;53.514;9.994;2023-03-24T11:03:51;15.20;99.90
981;DHT22;479;53.514;9.994;2023-03-24T11:06:19;14.90;99.90
981;DHT22;479;53.514;9.994;2023-03-24T11:08:47;14.80;99.90
981;DHT22;479;53.514;9.994;2023-03-24T11:11:34;14.80;99.90
981;DHT22;479;53.514;9.994;2023-03-24T11:14:01;14.80;99.90
981;DHT22;479;53.514;9.994;2023-03-24T11:16:31;14.80;99.90
981;DHT22;479;53.514;9.994;2023-03-24T11:19:02;14.90;99.90
981;DHT22;479;53.514;9.994;2023-03-24T11:21:30;15.00;99.90
981;DHT22;479;53.514;9.994;2023-03-24T11:23:58;14.80;99.90
981;DHT22;479;53.514;9.994;2023-03-24T11:26:29;14.70;99.90
981;DHT22;479;53.514;9.994;2023-03-24T11:29:00;14.80;99.90
981;DHT22;479;53.514;9.994;2023-03-24T11:31:30;14.90;99.90
981;DHT22;479;53.514;9.994;2023-03-24T11:33:59;15.30;99.90
981;DHT22;479;53.514;9.994;2023-03-24T11:36:41;15.50;99.90
981;DHT22;479;53.514;9.994;2023-03-24T11:39:11;15.20;99.90
981;DHT22;479;53.514;9.994;2023-03-24T11:41:41;15.30;99.90
981;DHT22;479;53.514;9.994;2023-03-24T11:44:19;15.30;99.90
981;DHT22;479;53.514;9.994;2023-03-24T11:46:51;15.20;99.90
981;DHT22;479;53.514;9.994;2023-03-24T11:49:21;15.30;99.90
981;DHT22;479;53.514;9.994;2023-03-24T11:51:53;15.20;99.90
981;DHT22;479;53.514;9.994;2023-03-24T11:54:23;15.20;99.90
981;DHT22;479;53.514;9.994;2023-03-24T11:56:52;15.20;99.90
981;DHT22;479;53.514;9.994;2023-03-24T11:59:27;15.20;99.90
981;DHT22;479;53.514;9.994;2023-03-24T12:02:03;15.20;99.90
981;DHT22;479;53.514;9.994;2023-03-24T12:04:55;15.20;99.90
981;DHT22;479;53.514;9.994;2023-03-24T12:07:52;15.40;99.60
981;DHT22;479;53.514;9.994;2023-03-24T12:10:34;15.50;99.90
981;DHT22;479;53.514;9.994;2023-03-24T12:13:08;15.60;98.70
981;DHT22;479;53.514;9.994;2023-03-24T12:15:52;15.70;98.30
981;DHT22;479;53.514;9.994;2023-03-24T12:18:45;15.70;97.30
981;DHT22;479;53.514;9.994;2023-03-24T12:21:24;15.80;96.90
981;DHT22;479;53.514;9.994;2023-03-24T12:23:57;15.80;94.90
981;DHT22;479;53.514;9.994;2023-03-24T12:26:25;15.60;94.30
981;DHT22;479;53.514;9.994;2023-03-24T12:28:57;15.70;93.70
981;DHT22;479;53.514;9.994;2023-03-24T12:34:35;15.50;92.90
981;DHT22;479;53.514;9.994;2023-03-24T12:37:08;15.20;92.90
981;DHT22;479;53.514;9.994;2023-03-24T12:39:46;15.30;93.30
981;DHT22;479;53.514;9.994;2023-03-24T12:42:19;15.30;93.40
981;DHT22;479;53.514;9.994;2023-03-24T12:45:04;15.40;94.50
981;DHT22;479;53.514;9.994;2023-03-24T12:50:36;15.70;93.90
981;DHT22;479;53.514;9.994;2023-03-24T12:53:24;15.90;92.90
981;DHT22;479;53.514;9.994;2023-03-24T12:55:57;15.90;93.10
981;DHT22;479;53.514;9.994;2023-03-24T12:58:32;15.90;92.20
981;DHT22;479;53.514;9.994;2023-03-24T13:01:05;15.80;91.60
981;DHT22;479;53.514;9.994;2023-03-24T13:03:38;15.80;91.70
981;DHT22;479;53.514;9.994;2023-03-24T13:06:14;15.70;91.50
981;DHT22;479;53.514;9.994;2023-03-24T13:08:45;15.50;91.60
981;DHT22;479;53.514;9.994;2023-03-24T13:11:16;15.30;92.10
981;DHT22;479;53.514;9.994;2023-03-24T13:13:46;15.40;92.00
981;DHT22;479;53.514;9.994;2023-03-24T13:16:17;15.40;91.20
981;DHT22;479;53.514;9.994;2023-03-24T13:18:47;15.30;91.80
981;DHT22;479;53.514;9.994;2023-03-24T13:21:19;15.40;92.80
981;DHT22;479;53.514;9.994;2023-03-24T13:23:51;15.60;93.00
981;DHT22;479;53.514;9.994;2023-03-24T13:26:29;15.60;89.90
981;DHT22;479;53.514;9.994;2023-03-24T13:29:21;15.50;89.20
981;DHT22;479;53.514;9.994;2023-03-24T13:31:52;15.30;88.60
981;DHT22;479;53.514;9.994;2023-03-24T13:34:25;15.40;89.60
981;DHT22;479;53.514;9.994;2023-03-24T13:36:58;15.50;90.20
981;DHT22;479;53.514;9.994;2023-03-24T13:39:27;15.50;88.00
981;DHT22;479;53.514;9.994;2023-03-24T13:41:57;15.60;88.90
981;DHT22;479;53.514;9.994;2023-03-24T13:44:29;15.50;89.70
981;DHT22;479;53.514;9.994;2023-03-24T13:47:07;15.30;86.70
981;DHT22;479;53.514;9.994;2023-03-24T13:49:35;15.30;87.50
981;DHT22;479;53.514;9.994;2023-03-24T13:52:06;15.20;83.30
981;DHT22;479;53.514;9.994;2023-03-24T13:54:46;15.20;80.90
981;DHT22;479;53.514;9.994;2023-03-24T13:57:16;15.30;80.60
981;DHT22;479;53.514;9.994;2023-03-24T13:59:59;15.40;79.50
981;DHT22;479;53.514;9.994;2023-03-24T14:02:42;15.50;78.90
981;DHT22;479;53.514;9.994;2023-03-24T14:05:32;15.70;76.90
981;DHT22;479;53.514;9.994;2023-03-24T14:08:12;15.90;76.00
981;DHT22;479;53.514;9.994;2023-03-24T14:10:42;15.90;74.70
981;DHT22;479;53.514;9.994;2023-03-24T14:16:33;15.70;72.70
981;DHT22;479;53.514;9.994;2023-03-24T14:19:16;15.80;75.50
981;DHT22;479;53.514;9.994;2023-03-24T14:21:44;15.70;78.00
981;DHT22;479;53.514;9.994;2023-03-24T14:24:22;15.50;78.50
981;DHT22;479;53.514;9.994;2023-03-24T14:26:51;15.40;78.30
981;DHT22;479;53.514;9.994;2023-03-24T14:29:38;15.30;78.30
981;DHT22;479;53.514;9.994;2023-03-24T14:32:11;15.40;80.10
981;DHT22;479;53.514;9.994;2023-03-24T14:34:49;15.30;77.10
981;DHT22;479;53.514;9.994;2023-03-24T14:37:17;15.40;76.30
981;DHT22;479;53.514;9.994;2023-03-24T14:39:46;15.40;73.80
981;DHT22;479;53.514;9.994;2023-03-24T14:45:37;15.40;71.60
981;DHT22;479;53.514;9.994;2023-03-24T14:48:14;15.40;69.70
981;DHT22;479;53.514;9.994;2023-03-24T14:50:46;15.30;67.60
981;DHT22;479;53.514;9.994;2023-03-24T14:53:17;15.40;67.10
981;DHT22;479;53.514;9.994;2023-03-24T14:55:47;15.50;69.40
981;DHT22;479;53.514;9.994;2023-03-24T14:58:20;15.50;65.30
981;DHT22;479;53.514;9.994;2023-03-24T15:00:50;15.40;65.50
981;DHT22;479;53.514;9.994;2023-03-24T15:03:22;15.40;68.10
981;DHT22;479;53.514;9.994;2023-03-24T15:05:52;15.50;69.60
981;DHT22;479;53.514;9.994;2023-03-24T15:08:20;15.50;69.90
981;DHT22;479;53.514;9.994;2023-03-24T15:10:52;15.50;68.10
981;DHT22;479;53.514;9.994;2023-03-24T15:13:28;15.50;66.80
981;DHT22;479;53.514;9.994;2023-03-24T15:15:58;15.50;66.20
981;DHT22;479;53.514;9.994;2023-03-24T15:18:26;15.50;64.10
981;DHT22;479;53.514;9.994;2023-03-24T15:20:53;15.40;63.60
981;DHT22;479;53.514;9.994;2023-03-24T15:23:22;15.40;63.70
981;DHT22;479;53.514;9.994;2023-03-24T15:25:51;15.30;65.30
981;DHT22;479;53.514;9.994;2023-03-24T15:28:20;15.30;65.00
981;DHT22;479;53.514;9.994;2023-03-24T15:30:48;15.30;65.40
981;DHT22;479;53.514;9.994;2023-03-24T15:33:15;15.20;65.50
981;DHT22;479;53.514;9.994;2023-03-24T15:35:43;15.30;65.00
981;DHT22;479;53.514;9.994;2023-03-24T15:38:17;15.20;65.50
981;DHT22;479;53.514;9.994;2023-03-24T15:40:56;15.10;66.40
981;DHT22;479;53.514;9.994;2023-03-24T15:43:24;15.10;66.50
981;DHT22;479;53.514;9.994;2023-03-24T15:45:54;15.00;67.50
981;DHT22;479;53.514;9.994;2023-03-24T15:48:25;15.00;67.50
981;DHT22;479;53.514;9.994;2023-03-24T15:50:58;15.10;68.20
981;DHT22;479;53.514;9.994;2023-03-24T15:53:27;14.90;68.60
981;DHT22;479;53.514;9.994;2023-03-24T15:56:05;14.90;69.00
981;DHT22;479;53.514;9.994;2023-03-24T15:58:45;14.80;69.90
981;DHT22;479;53.514;9.994;2023-03-24T16:01:14;14.80;71.20
981;DHT22;479;53.514;9.994;2023-03-24T16:03:44;14.80;71.30
981;DHT22;479;53.514;9.994;2023-03-24T16:06:14;14.70;71.70
981;DHT22;479;53.514;9.994;2023-03-24T16:08:42;14.70;72.90
981;DHT22;479;53.514;9.994;2023-03-24T16:11:13;14.90;74.90
981;DHT22;479;53.514;9.994;2023-03-24T16:13:42;14.80;75.90
981;DHT22;479;53.514;9.994;2023-03-24T16:16:23;14.80;76.90
981;DHT22;479;53.514;9.994;2023-03-24T16:18:53;14.60;77.30
981;DHT22;479;53.514;9.994;2023-03-24T16:21:28;14.50;78.30
981;DHT22;479;53.514;9.994;2023-03-24T16:23:57;14.40;78.80
981;DHT22;479;53.514;9.994;2023-03-24T16:26:26;14.40;79.30
981;DHT22;479;53.514;9.994;2023-03-24T16:28:54;14.40;79.40
981;DHT22;479;53.514;9.994;2023-03-24T16:31:27;14.40;80.30
981;DHT22;479;53.514;9.994;2023-03-24T16:33:55;14.40;80.90
981;DHT22;479;53.514;9.994;2023-03-24T16:36:23;14.30;81.10
981;DHT22;479;53.514;9.994;2023-03-24T16:38:52;14.20;81.40
981;DHT22;479;53.514;9.994;2023-03-24T16:41:19;14.20;82.50
981;DHT22;479;53.514;9.994;2023-03-24T16:43:47;14.10;83.30
981;DHT22;479;53.514;9.994;2023-03-24T16:46:16;14.00;84.10
981;DHT22;479;53.514;9.994;2023-03-24T16:48:44;14.00;84.60
981;DHT22;479;53.514;9.994;2023-03-24T16:51:12;13.90;85.40
981;DHT22;479;53.514;9.994;2023-03-24T16:53:40;13.90;85.90
981;DHT22;479;53.514;9.994;2023-03-24T16:56:08;13.80;86.90
981;DHT22;479;53.514;9.994;2023-03-24T16:58:36;13.80;87.50
981;DHT22;479;53.514;9.994;2023-03-24T17:01:13;13.80;88.40
981;DHT22;479;53.514;9.994;2023-03-24T17:03:52;13.70;88.80
981;DHT22;479;53.514;9.994;2023-03-24T17:06:23;13.70;89.80
981;DHT22;479;53.514;9.994;2023-03-24T17:08:53;13.60;90.30
981;DHT22;479;53.514;9.994;2023-03-24T17:11:25;13.60;90.70
981;DHT22;479;53.514;9.994;2023-03-24T17:13:52;13.60;91.20
981;DHT22;479;53.514;9.994;2023-03-24T17:16:23;13.60;91.60
981;DHT22;479;53.514;9.994;2023-03-24T17:18:50;13.50;92.80
981;DHT22;479;53.514;9.994;2023-03-24T17:21:17;13.50;95.20
981;DHT22;479;53.514;9.994;2023-03-24T17:23:47;13.50;97.40
981;DHT22;479;53.514;9.994;2023-03-24T17:26:14;13.30;99.80
981;DHT22;479;53.514;9.994;2023-03-24T17:28:41;13.30;99.90
981;DHT22;479;53.514;9.994;2023-03-24T17:31:08;13.20;99.90
981;DHT22;479;53.514;9.994;2023-03-24T17:33:37;13.10;99.90